»·PEaware :: AAL491 KPHX-KJAC

AAL491 :: KPHX-KJAC

FLIGHT INFORMATION

Flight Status: Arrived
Operator:
American Airlines
More flights by this operator :: More flights under this callsign
Pilot: Jim M. (18055)
Aircraft: AIRBUS A319
(A319)
More flights by this aircraft type
Origin: KPHX Phoenix Sky Harbor Intl
United States
Destination: KJAC Jackson Hole
United States
More flights between these airports :: More routes between these airports
Route: QUAKY1 GCN MOJVI JOGOX DNW
File this flight plan on PilotEdge
Remarks:
Altitude:
(Current/Filed)
36,000ft
Speed:
(Current/Filed)
450kts
Departed: 17-Mar-19 09:16 AM
Arrived: 17-Mar-19 10:56 AM
Distance/Time
Traveled:
613nm/1:40
Distance/Time
To Go:
Arrived

Flight Plot

Page will automatically refresh every two minutes.

Flight plan parsing failed; only flown route is shown


Map Options




Map Legend


Flown Route
Filed Route
Departure Airport
Arrival Airport
Navaid (VOR, NDB)
Fix

Horizontal Profiles

Position Reports

Time Latitude Longitude Heading Altitude Ground
Speed
17-Mar-19 08:42 33.437605 -112.002465 90 1149ft 0kts
17-Mar-19 08:43 33.437605 -112.002465 90 1149ft 0kts
17-Mar-19 08:44 33.437605 -112.002465 90 1149ft 0kts
17-Mar-19 08:45 33.437605 -112.002465 90 1149ft 0kts
17-Mar-19 08:46 33.437605 -112.002465 90 1149ft 0kts
17-Mar-19 08:47 33.437605 -112.002465 90 1149ft 0kts
17-Mar-19 08:48 33.437605 -112.002465 90 1149ft 0kts
17-Mar-19 08:49 33.437605 -112.002465 90 1149ft 0kts
17-Mar-19 08:50 33.437605 -112.002465 90 1149ft 0kts
17-Mar-19 08:51 33.437605 -112.002465 90 1149ft 0kts
17-Mar-19 08:52 33.437605 -112.002465 90 1149ft 0kts
17-Mar-19 08:53 33.437605 -112.002465 90 1149ft 0kts
17-Mar-19 08:54 33.437605 -112.002465 90 1149ft 0kts
17-Mar-19 08:54 33.437605 -112.002465 90 1149ft 0kts
17-Mar-19 08:55 33.437605 -112.002465 90 1149ft 0kts
17-Mar-19 08:57 33.437605 -112.002465 90 1149ft 0kts
17-Mar-19 08:57 33.437605 -112.002465 90 1149ft 0kts
17-Mar-19 08:58 33.437605 -112.002465 90 1149ft 0kts
17-Mar-19 08:59 33.437550 -112.002886 57 1149ft 2kts
17-Mar-19 09:00 33.437277 -112.003042 359 1149ft 0kts
17-Mar-19 09:01 33.437277 -112.003042 359 1149ft 0kts
17-Mar-19 09:02 33.437277 -112.003042 359 1149ft 0kts
17-Mar-19 09:03 33.437277 -112.003042 359 1149ft 0kts
17-Mar-19 09:04 33.438180 -112.003041 0 1149ft 5kts
17-Mar-19 09:05 33.438767 -112.003155 317 1149ft 5kts
17-Mar-19 09:06 33.438993 -112.005488 267 1149ft 10kts
17-Mar-19 09:07 33.438955 -112.009556 268 1149ft 12kts
17-Mar-19 09:08 33.438956 -112.013673 269 1149ft 12kts
17-Mar-19 09:09 33.439001 -112.017572 269 1149ft 11kts
17-Mar-19 09:10 33.438980 -112.021234 271 1149ft 11kts
17-Mar-19 09:11 33.438990 -112.025085 269 1149ft 11kts
17-Mar-19 09:12 33.438976 -112.028710 269 1149ft 10kts
17-Mar-19 09:13 33.439822 -112.029687 358 1149ft 0kts
17-Mar-19 09:14 33.440068 -112.029692 359 1149ft 5kts
17-Mar-19 09:15 33.440905 -112.027156 89 1149ft 57kts
17-Mar-19 09:16 33.440697 -111.978871 92 2795ft 182kts
17-Mar-19 09:17 33.436755 -111.907592 92 4557ft 245kts
17-Mar-19 09:18 33.462559 -111.834556 19 7453ft 272kts
17-Mar-19 09:19 33.541470 -111.834590 0 10453ft 293kts
17-Mar-19 09:20 33.632529 -111.836111 359 11931ft 360kts
17-Mar-19 09:21 33.736247 -111.855442 349 14204ft 384kts
17-Mar-19 09:22 33.843077 -111.879571 349 16545ft 396kts
17-Mar-19 09:23 33.952783 -111.904280 349 18666ft 407kts
17-Mar-19 09:24 34.066144 -111.929917 349 20492ft 420kts
17-Mar-19 09:25 34.183636 -111.945770 355 22179ft 431kts
17-Mar-19 09:26 34.304590 -111.959103 355 23723ft 442kts
17-Mar-19 09:27 34.428375 -111.972773 355 25187ft 450kts
17-Mar-19 09:28 34.554198 -111.986705 355 26576ft 458kts
17-Mar-19 09:29 34.681875 -112.000808 355 27896ft 465kts
17-Mar-19 09:30 34.810810 -112.015219 355 29575ft 461kts
17-Mar-19 09:31 34.938084 -112.029552 356 31188ft 457kts
17-Mar-19 09:32 35.064647 -112.043849 356 32587ft 454kts
17-Mar-19 09:33 35.189851 -112.058028 356 33761ft 451kts
17-Mar-19 09:34 35.314227 -112.072212 356 34711ft 449kts
17-Mar-19 09:35 35.438572 -112.085465 356 35482ft 447kts
17-Mar-19 09:36 35.562685 -112.097778 355 36119ft 446kts
17-Mar-19 09:37 35.686302 -112.113179 355 36346ft 445kts
17-Mar-19 09:38 35.809882 -112.127836 355 36358ft 446kts
17-Mar-19 09:39 35.933465 -112.142771 355 36387ft 446kts
17-Mar-19 09:40 36.056617 -112.136496 6 36399ft 444kts
17-Mar-19 09:41 36.180256 -112.123688 5 36405ft 445kts
17-Mar-19 09:42 36.303379 -112.111071 5 36409ft 446kts
17-Mar-19 09:43 36.423056 -112.098823 5 36408ft 445kts
17-Mar-19 09:44 36.550532 -112.085708 5 36405ft 443kts
17-Mar-19 09:45 36.673270 -112.073062 5 36373ft 443kts
17-Mar-19 09:46 36.796013 -112.060327 5 36367ft 442kts
17-Mar-19 09:47 36.918645 -112.047610 5 36352ft 442kts
17-Mar-19 09:48 37.041314 -112.034839 5 36358ft 441kts
17-Mar-19 09:49 37.163515 -112.022048 5 36336ft 440kts
17-Mar-19 09:50 37.285421 -112.009282 5 36339ft 439kts
17-Mar-19 09:51 37.407415 -111.996442 5 36344ft 439kts
17-Mar-19 09:52 37.528951 -111.983594 6 36350ft 438kts
17-Mar-19 09:53 37.650743 -111.970700 6 36396ft 439kts
17-Mar-19 09:54 37.772049 -111.957816 6 36445ft 439kts
17-Mar-19 09:55 37.893316 -111.939631 12 36444ft 437kts
17-Mar-19 09:56 38.012684 -111.909621 12 36437ft 437kts
17-Mar-19 09:57 38.132350 -111.880056 12 36438ft 437kts
17-Mar-19 09:58 38.251542 -111.850333 12 36434ft 437kts
17-Mar-19 09:59 38.370757 -111.820545 12 36433ft 437kts
17-Mar-19 10:00 38.490170 -111.790605 11 36438ft 437kts
17-Mar-19 10:01 38.609629 -111.760529 11 36435ft 437kts
17-Mar-19 10:02 38.729014 -111.730401 11 36438ft 437kts
17-Mar-19 10:03 38.848236 -111.700193 11 36432ft 437kts
17-Mar-19 10:04 38.967639 -111.669834 11 36428ft 437kts
17-Mar-19 10:05 39.086914 -111.639433 11 36417ft 437kts
17-Mar-19 10:06 39.206179 -111.608892 10 36425ft 436kts
17-Mar-19 10:07 39.325532 -111.578248 10 36415ft 436kts
17-Mar-19 10:08 39.444801 -111.547481 10 36365ft 438kts
17-Mar-19 10:09 39.564311 -111.516577 10 36391ft 437kts
17-Mar-19 10:10 39.683516 -111.485645 10 36380ft 437kts
17-Mar-19 10:11 39.802783 -111.454590 10 36374ft 438kts
17-Mar-19 10:12 39.922460 -111.423313 10 36375ft 438kts
17-Mar-19 10:13 40.041729 -111.392043 9 36394ft 437kts
17-Mar-19 10:14 40.160974 -111.360596 9 36404ft 437kts
17-Mar-19 10:15 40.280468 -111.329037 9 36415ft 437kts
17-Mar-19 10:16 40.399565 -111.297457 9 36419ft 437kts
17-Mar-19 10:17 40.518728 -111.265759 9 36423ft 437kts
17-Mar-19 10:18 40.638120 -111.233856 9 36419ft 437kts
17-Mar-19 10:19 40.757396 -111.201904 9 36421ft 437kts
17-Mar-19 10:20 40.876389 -111.169870 8 36422ft 437kts
17-Mar-19 10:21 40.995678 -111.137669 8 36357ft 439kts
17-Mar-19 10:22 41.115996 -111.105065 8 36337ft 445kts
17-Mar-19 10:23 41.238334 -111.071783 8 36407ft 450kts
17-Mar-19 10:24 41.360868 -111.038311 8 36427ft 449kts
17-Mar-19 10:25 41.482831 -111.004888 8 36430ft 444kts
17-Mar-19 10:26 41.603638 -110.971640 8 36358ft 444kts
17-Mar-19 10:27 41.725228 -110.938051 8 36389ft 447kts
17-Mar-19 10:28 41.847088 -110.904249 8 36433ft 447kts
17-Mar-19 10:29 41.968910 -110.870312 8 36438ft 445kts
17-Mar-19 10:30 42.089942 -110.836513 7 36381ft 445kts
17-Mar-19 10:31 42.211468 -110.802387 7 36382ft 446kts
17-Mar-19 10:32 42.332769 -110.768212 7 35621ft 446kts
17-Mar-19 10:33 42.454482 -110.733777 7 34631ft 449kts
17-Mar-19 10:34 42.575333 -110.699485 7 32002ft 446kts
17-Mar-19 10:35 42.696146 -110.664938 7 29240ft 435kts
17-Mar-19 10:36 42.812906 -110.631602 7 26870ft 422kts
17-Mar-19 10:37 42.927296 -110.598677 7 25868ft 417kts
17-Mar-19 10:38 43.039791 -110.560126 11 24871ft 415kts
17-Mar-19 10:39 43.149525 -110.513390 12 23875ft 410kts
17-Mar-19 10:40 43.256944 -110.467001 12 22600ft 396kts
17-Mar-19 10:41 43.360929 -110.422343 12 20252ft 385kts
17-Mar-19 10:42 43.461769 -110.380054 12 18078ft 372kts
17-Mar-19 10:43 43.559893 -110.340373 12 15950ft 356kts
17-Mar-19 10:45 43.651226 -110.305236 12 14978ft 316kts
17-Mar-19 10:46 43.732903 -110.312085 347 13291ft 299kts
17-Mar-19 10:47 43.808297 -110.332562 331 12932ft 242kts
17-Mar-19 10:48 43.823193 -110.404393 263 11909ft 197kts
17-Mar-19 10:49 43.817683 -110.481025 265 10984ft 194kts
17-Mar-19 10:50 43.806624 -110.553540 243 10600ft 196kts
17-Mar-19 10:51 43.781679 -110.620956 229 9755ft 192kts
17-Mar-19 10:52 43.740340 -110.666384 219 8670ft 190kts
17-Mar-19 10:53 43.696723 -110.694083 199 8175ft 151kts
17-Mar-19 10:54 43.658003 -110.708873 196 7554ft 145kts
17-Mar-19 10:55 43.621552 -110.730668 203 6627ft 141kts
17-Mar-19 10:56 43.600144 -110.741174 187 6465ft 8kts
17-Mar-19 10:57 43.599716 -110.739884 45 6465ft 4kts
17-Mar-19 10:58 43.601714 -110.738799 19 6465ft 13kts
17-Mar-19 10:59 43.604139 -110.737634 19 6465ft 6kts
17-Mar-19 11:00 43.604552 -110.735896 110 6465ft 0kts
17-Mar-19 11:01 43.604552 -110.735896 110 6465ft 0kts
17-Mar-19 11:02 43.604552 -110.735896 110 6465ft 0kts
17-Mar-19 11:02 43.604552 -110.735896 110 6465ft 0kts

Navigation Log

Ident Type
Flight plan parsing failed, navigation log unavailable